sensor_id;sensor_type;location;lat;lon;timestamp;P1;durP1;ratioP1;P2;durP2;ratioP2
5690;SDS011;2870;42.680;23.364;2022-11-22T00:00:57;5.53;;;5.03;;
5690;SDS011;2870;42.680;23.364;2022-11-22T00:03:24;7.87;;;6.20;;
5690;SDS011;2870;42.680;23.364;2022-11-22T00:05:51;6.50;;;5.60;;
5690;SDS011;2870;42.680;23.364;2022-11-22T00:08:18;6.53;;;5.30;;
5690;SDS011;2870;42.680;23.364;2022-11-22T00:10:48;6.13;;;5.53;;
5690;SDS011;2870;42.680;23.364;2022-11-22T00:13:15;6.87;;;6.17;;
5690;SDS011;2870;42.680;23.364;2022-11-22T00:15:42;6.57;;;5.87;;
5690;SDS011;2870;42.680;23.364;2022-11-22T00:18:10;6.20;;;5.30;;
5690;SDS011;2870;42.680;23.364;2022-11-22T00:20:37;6.43;;;5.83;;
5690;SDS011;2870;42.680;23.364;2022-11-22T00:23:03;6.90;;;5.83;;
5690;SDS011;2870;42.680;23.364;2022-11-22T00:25:30;6.70;;;5.70;;
5690;SDS011;2870;42.680;23.364;2022-11-22T00:27:58;6.30;;;5.53;;
5690;SDS011;2870;42.680;23.364;2022-11-22T00:30:25;6.90;;;6.10;;
5690;SDS011;2870;42.680;23.364;2022-11-22T00:32:52;5.80;;;5.23;;
5690;SDS011;2870;42.680;23.364;2022-11-22T00:35:19;5.87;;;5.27;;
5690;SDS011;2870;42.680;23.364;2022-11-22T00:37:46;7.00;;;5.90;;
5690;SDS011;2870;42.680;23.364;2022-11-22T00:40:12;6.03;;;5.43;;
5690;SDS011;2870;42.680;23.364;2022-11-22T00:42:40;6.67;;;5.97;;
5690;SDS011;2870;42.680;23.364;2022-11-22T00:45:09;7.20;;;5.83;;
5690;SDS011;2870;42.680;23.364;2022-11-22T00:47:36;6.30;;;5.70;;
5690;SDS011;2870;42.680;23.364;2022-11-22T00:50:03;7.13;;;6.43;;
5690;SDS011;2870;42.680;23.364;2022-11-22T00:52:31;6.63;;;5.83;;
5690;SDS011;2870;42.680;23.364;2022-11-22T00:54:57;8.43;;;6.47;;
5690;SDS011;2870;42.680;23.364;2022-11-22T00:57:24;6.63;;;6.03;;
5690;SDS011;2870;42.680;23.364;2022-11-22T00:59:51;6.87;;;6.17;;
5690;SDS011;2870;42.680;23.364;2022-11-22T01:02:19;6.50;;;5.90;;
5690;SDS011;2870;42.680;23.364;2022-11-22T01:04:46;6.70;;;6.00;;
5690;SDS011;2870;42.680;23.364;2022-11-22T01:07:12;6.60;;;5.97;;
5690;SDS011;2870;42.680;23.364;2022-11-22T01:09:39;6.83;;;6.10;;
5690;SDS011;2870;42.680;23.364;2022-11-22T01:12:06;8.30;;;7.50;;
5690;SDS011;2870;42.680;23.364;2022-11-22T01:14:33;8.70;;;6.40;;
5690;SDS011;2870;42.680;23.364;2022-11-22T01:17:00;8.10;;;6.47;;
5690;SDS011;2870;42.680;23.364;2022-11-22T01:19:29;7.83;;;7.03;;
5690;SDS011;2870;42.680;23.364;2022-11-22T01:21:55;9.53;;;6.40;;
5690;SDS011;2870;42.680;23.364;2022-11-22T01:24:22;8.33;;;7.23;;
5690;SDS011;2870;42.680;23.364;2022-11-22T01:26:49;7.80;;;6.30;;
5690;SDS011;2870;42.680;23.364;2022-11-22T01:29:16;10.50;;;7.63;;
5690;SDS011;2870;42.680;23.364;2022-11-22T01:31:43;8.67;;;7.00;;
5690;SDS011;2870;42.680;23.364;2022-11-22T01:34:09;7.90;;;7.10;;
5690;SDS011;2870;42.680;23.364;2022-11-22T01:36:37;8.77;;;7.17;;
5690;SDS011;2870;42.680;23.364;2022-11-22T01:39:04;8.57;;;7.03;;
5690;SDS011;2870;42.680;23.364;2022-11-22T01:41:31;7.87;;;6.93;;
5690;SDS011;2870;42.680;23.364;2022-11-22T01:46:43;8.30;;;6.60;;
5690;SDS011;2870;42.680;23.364;2022-11-22T01:49:11;9.57;;;7.90;;
5690;SDS011;2870;42.680;23.364;2022-11-22T01:51:45;8.13;;;7.33;;
5690;SDS011;2870;42.680;23.364;2022-11-22T01:54:15;8.30;;;7.40;;
5690;SDS011;2870;42.680;23.364;2022-11-22T01:56:49;8.13;;;7.30;;
5690;SDS011;2870;42.680;23.364;2022-11-22T01:59:20;8.67;;;7.30;;
5690;SDS011;2870;42.680;23.364;2022-11-22T02:01:51;7.93;;;6.93;;
5690;SDS011;2870;42.680;23.364;2022-11-22T02:04:19;10.10;;;7.50;;
5690;SDS011;2870;42.680;23.364;2022-11-22T02:06:50;9.60;;;8.53;;
5690;SDS011;2870;42.680;23.364;2022-11-22T02:09:22;9.37;;;7.00;;
5690;SDS011;2870;42.680;23.364;2022-11-22T02:11:50;8.37;;;7.47;;
5690;SDS011;2870;42.680;23.364;2022-11-22T02:14:20;8.43;;;7.00;;
5690;SDS011;2870;42.680;23.364;2022-11-22T02:16:50;8.83;;;7.90;;
5690;SDS011;2870;42.680;23.364;2022-11-22T02:19:18;9.07;;;7.77;;
5690;SDS011;2870;42.680;23.364;2022-11-22T02:21:50;7.93;;;7.00;;
5690;SDS011;2870;42.680;23.364;2022-11-22T02:24:23;9.70;;;7.77;;
5690;SDS011;2870;42.680;23.364;2022-11-22T02:26:56;10.60;;;7.80;;
5690;SDS011;2870;42.680;23.364;2022-11-22T02:29:23;9.70;;;8.47;;
5690;SDS011;2870;42.680;23.364;2022-11-22T02:31:50;10.60;;;7.93;;
5690;SDS011;2870;42.680;23.364;2022-11-22T02:34:17;8.00;;;7.13;;
5690;SDS011;2870;42.680;23.364;2022-11-22T02:36:44;9.43;;;8.50;;
5690;SDS011;2870;42.680;23.364;2022-11-22T02:39:15;8.93;;;7.43;;
5690;SDS011;2870;42.680;23.364;2022-11-22T02:41:45;7.63;;;6.43;;
5690;SDS011;2870;42.680;23.364;2022-11-22T02:44:15;8.50;;;7.13;;
5690;SDS011;2870;42.680;23.364;2022-11-22T02:46:48;10.57;;;7.80;;
5690;SDS011;2870;42.680;23.364;2022-11-22T02:49:16;8.93;;;7.33;;
5690;SDS011;2870;42.680;23.364;2022-11-22T02:51:44;8.63;;;7.63;;
5690;SDS011;2870;42.680;23.364;2022-11-22T02:54:11;9.27;;;7.70;;
5690;SDS011;2870;42.680;23.364;2022-11-22T02:56:38;11.57;;;7.93;;
5690;SDS011;2870;42.680;23.364;2022-11-22T02:59:05;11.00;;;8.47;;
5690;SDS011;2870;42.680;23.364;2022-11-22T03:01:33;8.73;;;7.70;;
5690;SDS011;2870;42.680;23.364;2022-11-22T03:04:00;8.00;;;6.87;;
5690;SDS011;2870;42.680;23.364;2022-11-22T03:06:27;9.77;;;7.83;;
5690;SDS011;2870;42.680;23.364;2022-11-22T03:08:54;9.50;;;8.20;;
5690;SDS011;2870;42.680;23.364;2022-11-22T03:11:21;8.83;;;7.47;;
5690;SDS011;2870;42.680;23.364;2022-11-22T03:13:48;9.33;;;8.27;;
5690;SDS011;2870;42.680;23.364;2022-11-22T03:16:15;12.63;;;8.00;;
5690;SDS011;2870;42.680;23.364;2022-11-22T03:18:43;9.37;;;8.23;;
5690;SDS011;2870;42.680;23.364;2022-11-22T03:21:10;10.20;;;8.30;;
5690;SDS011;2870;42.680;23.364;2022-11-22T03:23:37;10.10;;;8.80;;
5690;SDS011;2870;42.680;23.364;2022-11-22T03:26:06;8.57;;;7.67;;
5690;SDS011;2870;42.680;23.364;2022-11-22T03:28:34;8.57;;;7.10;;
5690;SDS011;2870;42.680;23.364;2022-11-22T03:31:02;9.80;;;8.00;;
5690;SDS011;2870;42.680;23.364;2022-11-22T03:33:30;8.60;;;7.70;;
5690;SDS011;2870;42.680;23.364;2022-11-22T03:35:58;9.07;;;8.17;;
5690;SDS011;2870;42.680;23.364;2022-11-22T03:38:25;12.73;;;8.13;;
5690;SDS011;2870;42.680;23.364;2022-11-22T03:40:52;8.60;;;7.40;;
5690;SDS011;2870;42.680;23.364;2022-11-22T03:43:19;11.10;;;8.60;;
5690;SDS011;2870;42.680;23.364;2022-11-22T03:45:46;9.03;;;8.13;;
5690;SDS011;2870;42.680;23.364;2022-11-22T03:48:13;9.90;;;8.20;;
5690;SDS011;2870;42.680;23.364;2022-11-22T03:50:40;11.37;;;8.90;;
5690;SDS011;2870;42.680;23.364;2022-11-22T03:53:08;21.87;;;7.57;;
5690;SDS011;2870;42.680;23.364;2022-11-22T03:55:35;11.07;;;8.80;;
5690;SDS011;2870;42.680;23.364;2022-11-22T03:58:02;11.30;;;8.50;;
5690;SDS011;2870;42.680;23.364;2022-11-22T04:00:30;12.77;;;8.60;;
5690;SDS011;2870;42.680;23.364;2022-11-22T04:02:57;10.93;;;8.80;;
5690;SDS011;2870;42.680;23.364;2022-11-22T04:05:24;9.70;;;8.50;;
5690;SDS011;2870;42.680;23.364;2022-11-22T04:07:51;12.80;;;8.43;;
5690;SDS011;2870;42.680;23.364;2022-11-22T04:10:21;14.53;;;9.50;;
5690;SDS011;2870;42.680;23.364;2022-11-22T04:12:49;14.40;;;9.37;;
5690;SDS011;2870;42.680;23.364;2022-11-22T04:15:16;15.70;;;9.80;;
5690;SDS011;2870;42.680;23.364;2022-11-22T04:17:42;13.20;;;9.13;;
5690;SDS011;2870;42.680;23.364;2022-11-22T04:20:13;11.37;;;8.60;;
5690;SDS011;2870;42.680;23.364;2022-11-22T04:23:00;10.90;;;8.47;;
5690;SDS011;2870;42.680;23.364;2022-11-22T04:25:31;11.83;;;8.43;;
5690;SDS011;2870;42.680;23.364;2022-11-22T04:27:58;11.80;;;9.20;;
5690;SDS011;2870;42.680;23.364;2022-11-22T04:30:26;12.23;;;9.23;;
5690;SDS011;2870;42.680;23.364;2022-11-22T04:33:08;11.13;;;8.70;;
5690;SDS011;2870;42.680;23.364;2022-11-22T04:35:35;10.90;;;8.87;;
5690;SDS011;2870;42.680;23.364;2022-11-22T04:38:01;10.30;;;8.30;;
5690;SDS011;2870;42.680;23.364;2022-11-22T04:40:28;17.00;;;9.20;;
5690;SDS011;2870;42.680;23.364;2022-11-22T04:42:56;14.93;;;9.47;;
5690;SDS011;2870;42.680;23.364;2022-11-22T04:45:49;15.90;;;9.27;;
5690;SDS011;2870;42.680;23.364;2022-11-22T04:48:16;12.10;;;9.33;;
5690;SDS011;2870;42.680;23.364;2022-11-22T04:50:43;15.90;;;9.83;;
5690;SDS011;2870;42.680;23.364;2022-11-22T04:53:28;11.83;;;8.17;;
5690;SDS011;2870;42.680;23.364;2022-11-22T04:55:55;14.27;;;7.03;;
5690;SDS011;2870;42.680;23.364;2022-11-22T04:58:23;13.13;;;9.63;;
5690;SDS011;2870;42.680;23.364;2022-11-22T05:00:50;11.43;;;9.80;;
5690;SDS011;2870;42.680;23.364;2022-11-22T05:03:18;14.60;;;9.27;;
5690;SDS011;2870;42.680;23.364;2022-11-22T05:05:44;11.37;;;9.17;;
5690;SDS011;2870;42.680;23.364;2022-11-22T05:08:11;13.80;;;8.60;;
5690;SDS011;2870;42.680;23.364;2022-11-22T05:10:38;16.17;;;9.50;;
5690;SDS011;2870;42.680;23.364;2022-11-22T05:13:26;10.87;;;8.90;;
5690;SDS011;2870;42.680;23.364;2022-11-22T05:15:54;17.27;;;13.77;;
5690;SDS011;2870;42.680;23.364;2022-11-22T05:18:22;19.03;;;11.00;;
5690;SDS011;2870;42.680;23.364;2022-11-22T05:20:50;14.50;;;10.80;;
5690;SDS011;2870;42.680;23.364;2022-11-22T05:23:17;12.03;;;9.40;;
5690;SDS011;2870;42.680;23.364;2022-11-22T05:26:02;13.20;;;9.77;;
5690;SDS011;2870;42.680;23.364;2022-11-22T05:28:32;11.33;;;9.47;;
5690;SDS011;2870;42.680;23.364;2022-11-22T05:31:04;19.60;;;10.47;;
5690;SDS011;2870;42.680;23.364;2022-11-22T05:33:32;13.80;;;10.40;;
5690;SDS011;2870;42.680;23.364;2022-11-22T05:36:00;13.90;;;11.70;;
5690;SDS011;2870;42.680;23.364;2022-11-22T05:38:27;13.17;;;10.80;;
5690;SDS011;2870;42.680;23.364;2022-11-22T05:40:54;12.70;;;9.77;;
5690;SDS011;2870;42.680;23.364;2022-11-22T05:43:21;12.57;;;10.30;;
5690;SDS011;2870;42.680;23.364;2022-11-22T05:45:49;19.87;;;11.30;;
5690;SDS011;2870;42.680;23.364;2022-11-22T05:48:16;17.73;;;11.30;;
5690;SDS011;2870;42.680;23.364;2022-11-22T05:50:42;15.50;;;11.50;;
5690;SDS011;2870;42.680;23.364;2022-11-22T05:53:09;18.27;;;11.70;;
5690;SDS011;2870;42.680;23.364;2022-11-22T05:55:36;15.77;;;11.87;;
5690;SDS011;2870;42.680;23.364;2022-11-22T05:58:02;15.27;;;12.50;;
5690;SDS011;2870;42.680;23.364;2022-11-22T06:00:29;17.13;;;12.30;;
5690;SDS011;2870;42.680;23.364;2022-11-22T06:03:00;19.90;;;12.47;;
5690;SDS011;2870;42.680;23.364;2022-11-22T06:05:27;15.47;;;12.47;;
5690;SDS011;2870;42.680;23.364;2022-11-22T06:07:56;18.70;;;12.40;;
5690;SDS011;2870;42.680;23.364;2022-11-22T06:10:24;18.53;;;13.57;;
5690;SDS011;2870;42.680;23.364;2022-11-22T06:12:51;18.10;;;13.23;;
5690;SDS011;2870;42.680;23.364;2022-11-22T06:15:18;23.13;;;12.97;;
5690;SDS011;2870;42.680;23.364;2022-11-22T06:17:45;26.13;;;12.73;;
5690;SDS011;2870;42.680;23.364;2022-11-22T06:20:14;18.40;;;14.03;;
5690;SDS011;2870;42.680;23.364;2022-11-22T06:22:41;23.83;;;16.57;;
5690;SDS011;2870;42.680;23.364;2022-11-22T06:25:08;19.40;;;13.10;;
5690;SDS011;2870;42.680;23.364;2022-11-22T06:27:36;20.33;;;12.57;;
5690;SDS011;2870;42.680;23.364;2022-11-22T06:30:02;19.77;;;13.73;;
5690;SDS011;2870;42.680;23.364;2022-11-22T06:32:31;16.33;;;12.13;;
5690;SDS011;2870;42.680;23.364;2022-11-22T06:34:59;17.33;;;13.00;;
5690;SDS011;2870;42.680;23.364;2022-11-22T06:37:27;19.80;;;13.93;;
5690;SDS011;2870;42.680;23.364;2022-11-22T06:39:54;16.57;;;11.77;;
5690;SDS011;2870;42.680;23.364;2022-11-22T06:42:21;14.37;;;11.40;;
5690;SDS011;2870;42.680;23.364;2022-11-22T06:44:48;13.27;;;10.47;;
5690;SDS011;2870;42.680;23.364;2022-11-22T06:47:15;12.40;;;10.47;;
5690;SDS011;2870;42.680;23.364;2022-11-22T06:49:42;14.97;;;10.70;;
5690;SDS011;2870;42.680;23.364;2022-11-22T06:52:10;15.17;;;11.47;;
5690;SDS011;2870;42.680;23.364;2022-11-22T06:54:38;15.10;;;11.30;;
5690;SDS011;2870;42.680;23.364;2022-11-22T06:57:05;18.30;;;11.53;;
5690;SDS011;2870;42.680;23.364;2022-11-22T06:59:31;18.40;;;11.77;;
5690;SDS011;2870;42.680;23.364;2022-11-22T07:01:59;17.10;;;11.13;;
5690;SDS011;2870;42.680;23.364;2022-11-22T07:04:26;17.60;;;12.70;;
5690;SDS011;2870;42.680;23.364;2022-11-22T07:06:53;16.27;;;11.23;;
5690;SDS011;2870;42.680;23.364;2022-11-22T07:09:20;15.33;;;12.40;;
5690;SDS011;2870;42.680;23.364;2022-11-22T07:11:48;16.40;;;12.57;;
5690;SDS011;2870;42.680;23.364;2022-11-22T07:14:15;16.77;;;12.40;;
5690;SDS011;2870;42.680;23.364;2022-11-22T07:16:41;16.23;;;11.93;;
5690;SDS011;2870;42.680;23.364;2022-11-22T07:19:08;19.80;;;13.17;;
5690;SDS011;2870;42.680;23.364;2022-11-22T07:21:35;15.80;;;12.13;;
5690;SDS011;2870;42.680;23.364;2022-11-22T07:24:02;18.70;;;13.13;;
5690;SDS011;2870;42.680;23.364;2022-11-22T07:26:31;17.17;;;12.83;;
5690;SDS011;2870;42.680;23.364;2022-11-22T07:28:59;16.10;;;11.30;;
5690;SDS011;2870;42.680;23.364;2022-11-22T07:31:26;24.03;;;11.93;;
5690;SDS011;2870;42.680;23.364;2022-11-22T07:33:54;15.70;;;10.53;;
5690;SDS011;2870;42.680;23.364;2022-11-22T07:36:22;17.20;;;12.00;;
5690;SDS011;2870;42.680;23.364;2022-11-22T07:38:49;19.50;;;12.43;;
5690;SDS011;2870;42.680;23.364;2022-11-22T07:41:16;17.10;;;13.03;;
5690;SDS011;2870;42.680;23.364;2022-11-22T07:43:44;15.10;;;10.83;;
5690;SDS011;2870;42.680;23.364;2022-11-22T07:46:16;21.77;;;12.20;;
5690;SDS011;2870;42.680;23.364;2022-11-22T07:48:47;16.10;;;12.47;;
5690;SDS011;2870;42.680;23.364;2022-11-22T07:51:14;18.03;;;12.90;;
5690;SDS011;2870;42.680;23.364;2022-11-22T07:53:41;17.23;;;13.03;;
5690;SDS011;2870;42.680;23.364;2022-11-22T07:56:08;22.50;;;14.10;;
5690;SDS011;2870;42.680;23.364;2022-11-22T07:58:35;19.60;;;12.90;;
5690;SDS011;2870;42.680;23.364;2022-11-22T08:01:06;18.20;;;13.17;;
5690;SDS011;2870;42.680;23.364;2022-11-22T08:03:35;17.53;;;13.30;;
5690;SDS011;2870;42.680;23.364;2022-11-22T08:06:03;27.83;;;13.33;;
5690;SDS011;2870;42.680;23.364;2022-11-22T08:08:31;18.50;;;13.00;;
5690;SDS011;2870;42.680;23.364;2022-11-22T08:10:58;18.67;;;14.13;;
5690;SDS011;2870;42.680;23.364;2022-11-22T08:13:25;21.33;;;14.30;;
5690;SDS011;2870;42.680;23.364;2022-11-22T08:15:53;21.10;;;13.97;;
5690;SDS011;2870;42.680;23.364;2022-11-22T08:18:20;23.40;;;14.50;;
5690;SDS011;2870;42.680;23.364;2022-11-22T08:20:49;23.07;;;14.23;;
5690;SDS011;2870;42.680;23.364;2022-11-22T08:23:16;24.60;;;16.43;;
5690;SDS011;2870;42.680;23.364;2022-11-22T08:25:42;22.40;;;16.13;;
5690;SDS011;2870;42.680;23.364;2022-11-22T08:28:09;27.80;;;15.33;;
5690;SDS011;2870;42.680;23.364;2022-11-22T08:30:36;23.53;;;15.07;;
5690;SDS011;2870;42.680;23.364;2022-11-22T08:33:03;21.67;;;15.17;;
5690;SDS011;2870;42.680;23.364;2022-11-22T08:35:30;16.30;;;12.67;;
5690;SDS011;2870;42.680;23.364;2022-11-22T08:37:59;19.77;;;14.27;;
5690;SDS011;2870;42.680;23.364;2022-11-22T08:40:26;20.10;;;13.63;;
5690;SDS011;2870;42.680;23.364;2022-11-22T08:42:53;20.67;;;12.90;;
5690;SDS011;2870;42.680;23.364;2022-11-22T08:45:20;19.20;;;13.23;;
5690;SDS011;2870;42.680;23.364;2022-11-22T08:47:47;21.37;;;13.20;;
5690;SDS011;2870;42.680;23.364;2022-11-22T08:50:14;16.40;;;12.80;;
5690;SDS011;2870;42.680;23.364;2022-11-22T08:52:43;23.30;;;14.10;;
5690;SDS011;2870;42.680;23.364;2022-11-22T08:55:11;19.63;;;14.30;;
5690;SDS011;2870;42.680;23.364;2022-11-22T08:57:38;20.90;;;15.63;;
5690;SDS011;2870;42.680;23.364;2022-11-22T09:00:05;23.40;;;14.67;;
5690;SDS011;2870;42.680;23.364;2022-11-22T09:02:33;21.97;;;14.77;;
5690;SDS011;2870;42.680;23.364;2022-11-22T09:04:59;20.57;;;14.07;;
5690;SDS011;2870;42.680;23.364;2022-11-22T09:07:26;22.57;;;14.50;;
5690;SDS011;2870;42.680;23.364;2022-11-22T09:09:53;19.33;;;14.07;;
5690;SDS011;2870;42.680;23.364;2022-11-22T09:12:21;21.67;;;14.93;;
5690;SDS011;2870;42.680;23.364;2022-11-22T09:14:48;20.20;;;14.10;;
5690;SDS011;2870;42.680;23.364;2022-11-22T09:17:15;21.37;;;14.23;;
5690;SDS011;2870;42.680;23.364;2022-11-22T09:19:42;24.37;;;14.87;;
5690;SDS011;2870;42.680;23.364;2022-11-22T09:22:09;20.27;;;14.20;;
5690;SDS011;2870;42.680;23.364;2022-11-22T09:24:36;21.67;;;13.50;;
5690;SDS011;2870;42.680;23.364;2022-11-22T09:27:02;18.10;;;13.30;;
5690;SDS011;2870;42.680;23.364;2022-11-22T09:29:31;18.17;;;12.40;;
5690;SDS011;2870;42.680;23.364;2022-11-22T09:31:58;16.47;;;12.17;;
5690;SDS011;2870;42.680;23.364;2022-11-22T09:34:24;18.37;;;11.60;;
5690;SDS011;2870;42.680;23.364;2022-11-22T09:36:51;11.57;;;9.43;;
5690;SDS011;2870;42.680;23.364;2022-11-22T09:39:18;13.93;;;10.60;;
5690;SDS011;2870;42.680;23.364;2022-11-22T09:41:58;14.93;;;9.83;;
5690;SDS011;2870;42.680;23.364;2022-11-22T09:44:44;15.10;;;10.40;;
5690;SDS011;2870;42.680;23.364;2022-11-22T09:47:28;18.50;;;12.03;;
5690;SDS011;2870;42.680;23.364;2022-11-22T09:50:06;16.87;;;11.77;;
5690;SDS011;2870;42.680;23.364;2022-11-22T09:52:42;21.17;;;12.17;;
5690;SDS011;2870;42.680;23.364;2022-11-22T09:55:16;19.40;;;13.27;;
5690;SDS011;2870;42.680;23.364;2022-11-22T09:57:51;17.23;;;11.90;;
5690;SDS011;2870;42.680;23.364;2022-11-22T10:00:25;16.60;;;12.33;;
5690;SDS011;2870;42.680;23.364;2022-11-22T10:02:55;18.37;;;13.07;;
5690;SDS011;2870;42.680;23.364;2022-11-22T10:05:30;20.63;;;14.37;;
5690;SDS011;2870;42.680;23.364;2022-11-22T10:08:06;22.50;;;13.30;;
5690;SDS011;2870;42.680;23.364;2022-11-22T10:10:45;18.07;;;12.23;;
5690;SDS011;2870;42.680;23.364;2022-11-22T10:13:18;18.03;;;11.73;;
5690;SDS011;2870;42.680;23.364;2022-11-22T10:15:56;21.37;;;13.00;;
5690;SDS011;2870;42.680;23.364;2022-11-22T10:18:31;19.57;;;13.40;;
5690;SDS011;2870;42.680;23.364;2022-11-22T10:21:03;19.50;;;12.67;;
5690;SDS011;2870;42.680;23.364;2022-11-22T10:23:35;16.77;;;10.97;;
5690;SDS011;2870;42.680;23.364;2022-11-22T10:26:03;15.90;;;11.27;;
5690;SDS011;2870;42.680;23.364;2022-11-22T10:28:38;18.00;;;12.03;;
5690;SDS011;2870;42.680;23.364;2022-11-22T10:31:15;13.60;;;9.33;;
5690;SDS011;2870;42.680;23.364;2022-11-22T10:33:48;14.83;;;9.40;;
5690;SDS011;2870;42.680;23.364;2022-11-22T10:36:26;14.60;;;10.50;;
5690;SDS011;2870;42.680;23.364;2022-11-22T10:39:03;11.10;;;8.73;;
5690;SDS011;2870;42.680;23.364;2022-11-22T10:41:45;15.50;;;8.63;;
5690;SDS011;2870;42.680;23.364;2022-11-22T10:44:31;13.20;;;8.07;;
5690;SDS011;2870;42.680;23.364;2022-11-22T10:47:10;14.70;;;9.80;;
5690;SDS011;2870;42.680;23.364;2022-11-22T10:49:46;12.83;;;7.93;;
5690;SDS011;2870;42.680;23.364;2022-11-22T10:52:23;13.17;;;10.20;;
5690;SDS011;2870;42.680;23.364;2022-11-22T10:55:01;11.87;;;9.47;;
5690;SDS011;2870;42.680;23.364;2022-11-22T10:57:40;9.93;;;8.13;;
5690;SDS011;2870;42.680;23.364;2022-11-22T11:00:17;11.67;;;8.17;;
5690;SDS011;2870;42.680;23.364;2022-11-22T11:05:42;11.40;;;8.27;;
5690;SDS011;2870;42.680;23.364;2022-11-22T11:08:15;14.50;;;9.50;;
5690;SDS011;2870;42.680;23.364;2022-11-22T11:10:47;22.10;;;10.73;;
5690;SDS011;2870;42.680;23.364;2022-11-22T11:13:15;16.20;;;10.87;;
5690;SDS011;2870;42.680;23.364;2022-11-22T11:15:49;17.10;;;10.87;;
5690;SDS011;2870;42.680;23.364;2022-11-22T11:18:22;16.20;;;10.30;;
5690;SDS011;2870;42.680;23.364;2022-11-22T11:20:53;14.73;;;10.83;;
5690;SDS011;2870;42.680;23.364;2022-11-22T11:23:20;14.87;;;10.60;;
5690;SDS011;2870;42.680;23.364;2022-11-22T11:25:47;12.77;;;9.10;;
5690;SDS011;2870;42.680;23.364;2022-11-22T11:28:17;14.53;;;9.47;;
5690;SDS011;2870;42.680;23.364;2022-11-22T11:30:47;12.83;;;8.93;;
5690;SDS011;2870;42.680;23.364;2022-11-22T11:33:18;13.50;;;9.60;;
5690;SDS011;2870;42.680;23.364;2022-11-22T11:35:49;9.57;;;8.23;;
5690;SDS011;2870;42.680;23.364;2022-11-22T11:38:25;10.63;;;8.10;;
5690;SDS011;2870;42.680;23.364;2022-11-22T11:40:53;10.80;;;8.50;;
5690;SDS011;2870;42.680;23.364;2022-11-22T11:43:21;13.23;;;8.70;;
5690;SDS011;2870;42.680;23.364;2022-11-22T11:45:48;11.63;;;8.93;;
5690;SDS011;2870;42.680;23.364;2022-11-22T11:48:27;21.33;;;10.03;;
5690;SDS011;2870;42.680;23.364;2022-11-22T11:51:04;12.90;;;8.90;;
5690;SDS011;2870;42.680;23.364;2022-11-22T11:53:34;13.50;;;8.37;;
5690;SDS011;2870;42.680;23.364;2022-11-22T11:56:26;14.07;;;8.57;;
5690;SDS011;2870;42.680;23.364;2022-11-22T11:59:10;10.90;;;7.93;;
5690;SDS011;2870;42.680;23.364;2022-11-22T12:01:43;17.20;;;10.10;;
5690;SDS011;2870;42.680;23.364;2022-11-22T12:04:33;20.60;;;9.90;;
5690;SDS011;2870;42.680;23.364;2022-11-22T12:07:15;14.00;;;8.43;;
5690;SDS011;2870;42.680;23.364;2022-11-22T12:09:44;11.57;;;9.53;;
5690;SDS011;2870;42.680;23.364;2022-11-22T12:12:17;14.53;;;8.80;;
5690;SDS011;2870;42.680;23.364;2022-11-22T12:14:58;17.90;;;9.50;;
5690;SDS011;2870;42.680;23.364;2022-11-22T12:17:30;18.53;;;9.80;;
5690;SDS011;2870;42.680;23.364;2022-11-22T12:20:06;16.13;;;9.93;;
5690;SDS011;2870;42.680;23.364;2022-11-22T12:22:41;12.30;;;9.00;;
5690;SDS011;2870;42.680;23.364;2022-11-22T12:25:17;13.20;;;9.27;;
5690;SDS011;2870;42.680;23.364;2022-11-22T12:27:50;19.20;;;11.17;;
5690;SDS011;2870;42.680;23.364;2022-11-22T12:30:17;14.67;;;9.80;;
5690;SDS011;2870;42.680;23.364;2022-11-22T12:32:44;14.87;;;9.60;;
5690;SDS011;2870;42.680;23.364;2022-11-22T12:35:20;17.10;;;10.63;;
5690;SDS011;2870;42.680;23.364;2022-11-22T12:37:49;17.60;;;10.60;;
5690;SDS011;2870;42.680;23.364;2022-11-22T12:40:23;16.37;;;10.57;;
5690;SDS011;2870;42.680;23.364;2022-11-22T12:42:52;15.47;;;10.37;;
5690;SDS011;2870;42.680;23.364;2022-11-22T12:45:23;14.40;;;10.10;;
5690;SDS011;2870;42.680;23.364;2022-11-22T12:47:56;13.97;;;10.00;;
5690;SDS011;2870;42.680;23.364;2022-11-22T12:50:27;18.70;;;12.60;;
5690;SDS011;2870;42.680;23.364;2022-11-22T12:52:57;20.80;;;12.57;;
5690;SDS011;2870;42.680;23.364;2022-11-22T12:55:29;22.33;;;12.40;;
5690;SDS011;2870;42.680;23.364;2022-11-22T12:58:06;18.37;;;13.70;;
5690;SDS011;2870;42.680;23.364;2022-11-22T13:00:42;22.20;;;15.40;;
5690;SDS011;2870;42.680;23.364;2022-11-22T13:03:20;22.07;;;14.87;;
5690;SDS011;2870;42.680;23.364;2022-11-22T13:05:54;20.90;;;15.43;;
5690;SDS011;2870;42.680;23.364;2022-11-22T13:08:24;24.30;;;16.30;;
5690;SDS011;2870;42.680;23.364;2022-11-22T13:10:55;29.23;;;18.20;;
5690;SDS011;2870;42.680;23.364;2022-11-22T13:13:28;33.00;;;21.10;;
5690;SDS011;2870;42.680;23.364;2022-11-22T13:15:57;36.70;;;20.67;;
5690;SDS011;2870;42.680;23.364;2022-11-22T13:18:29;32.60;;;21.00;;
5690;SDS011;2870;42.680;23.364;2022-11-22T13:21:02;33.00;;;21.63;;
5690;SDS011;2870;42.680;23.364;2022-11-22T13:23:44;37.30;;;23.33;;
5690;SDS011;2870;42.680;23.364;2022-11-22T13:26:21;33.90;;;21.23;;
5690;SDS011;2870;42.680;23.364;2022-11-22T13:28:58;32.80;;;21.33;;
5690;SDS011;2870;42.680;23.364;2022-11-22T13:31:29;28.87;;;18.40;;
5690;SDS011;2870;42.680;23.364;2022-11-22T13:33:56;29.80;;;19.10;;
5690;SDS011;2870;42.680;23.364;2022-11-22T13:39:15;29.97;;;19.60;;
5690;SDS011;2870;42.680;23.364;2022-11-22T13:41:53;27.03;;;16.67;;
5690;SDS011;2870;42.680;23.364;2022-11-22T13:44:33;27.90;;;17.87;;
5690;SDS011;2870;42.680;23.364;2022-11-22T13:47:03;29.27;;;17.70;;
5690;SDS011;2870;42.680;23.364;2022-11-22T13:49:56;27.90;;;16.80;;
5690;SDS011;2870;42.680;23.364;2022-11-22T13:52:29;27.30;;;17.20;;
5690;SDS011;2870;42.680;23.364;2022-11-22T13:55:26;31.20;;;18.20;;
5690;SDS011;2870;42.680;23.364;2022-11-22T13:58:04;37.23;;;23.20;;
5690;SDS011;2870;42.680;23.364;2022-11-22T14:01:27;26.93;;;17.87;;
5690;SDS011;2870;42.680;23.364;2022-11-22T14:04:24;30.13;;;17.40;;
5690;SDS011;2870;42.680;23.364;2022-11-22T14:07:21;31.03;;;17.40;;
5690;SDS011;2870;42.680;23.364;2022-11-22T14:09:56;29.33;;;19.57;;
5690;SDS011;2870;42.680;23.364;2022-11-22T14:12:29;29.53;;;20.77;;
5690;SDS011;2870;42.680;23.364;2022-11-22T14:15:12;40.40;;;20.90;;
5690;SDS011;2870;42.680;23.364;2022-11-22T14:17:51;42.00;;;21.00;;
5690;SDS011;2870;42.680;23.364;2022-11-22T14:20:35;35.43;;;21.17;;
5690;SDS011;2870;42.680;23.364;2022-11-22T14:23:11;32.90;;;19.93;;
5690;SDS011;2870;42.680;23.364;2022-11-22T14:25:59;37.50;;;19.80;;
5690;SDS011;2870;42.680;23.364;2022-11-22T14:29:06;33.33;;;20.17;;
5690;SDS011;2870;42.680;23.364;2022-11-22T14:31:51;37.10;;;21.07;;
5690;SDS011;2870;42.680;23.364;2022-11-22T14:34:21;41.37;;;21.93;;
5690;SDS011;2870;42.680;23.364;2022-11-22T14:42:58;37.07;;;22.67;;
5690;SDS011;2870;42.680;23.364;2022-11-22T14:45:28;37.20;;;21.17;;
5690;SDS011;2870;42.680;23.364;2022-11-22T14:48:10;41.37;;;22.47;;
5690;SDS011;2870;42.680;23.364;2022-11-22T14:50:42;44.30;;;21.73;;
5690;SDS011;2870;42.680;23.364;2022-11-22T14:56:03;40.70;;;22.10;;
5690;SDS011;2870;42.680;23.364;2022-11-22T14:58:36;35.70;;;23.10;;
5690;SDS011;2870;42.680;23.364;2022-11-22T15:01:16;37.07;;;22.00;;
5690;SDS011;2870;42.680;23.364;2022-11-22T15:03:59;29.87;;;19.47;;
5690;SDS011;2870;42.680;23.364;2022-11-22T15:06:53;30.20;;;18.50;;
5690;SDS011;2870;42.680;23.364;2022-11-22T15:09:37;31.93;;;18.03;;
5690;SDS011;2870;42.680;23.364;2022-11-22T15:12:43;34.53;;;19.07;;
5690;SDS011;2870;42.680;23.364;2022-11-22T15:15:36;35.83;;;19.90;;
5690;SDS011;2870;42.680;23.364;2022-11-22T15:18:12;29.30;;;18.47;;
5690;SDS011;2870;42.680;23.364;2022-11-22T15:20:42;30.80;;;19.70;;
5690;SDS011;2870;42.680;23.364;2022-11-22T15:23:12;26.67;;;17.53;;